El Paso, TX (79924)

5:34 AM MDT on June 24, 2017 (GMT -0600)
| | Change Station
Active Advisory: Wind Advisory

Elev -9999 ft 0.00 °N, 0.00 °E | Updated 10 minutes ago

Overcast
Overcast
°F
Feels Like °F
N
Wind Variable Wind from North
Gusts mph

Today
High -- | Low -- °F
--% Chance of Precip.
Yesterday
High -- | Low -- °F
Precip. -- in
Pressure 29.83 in
Visibility 9.0 miles
Clouds Few 17000 ft
Scattered Clouds 19000 ft
Dew Point Not available.
Humidity Not available.
Rainfall --
Snow Depth Not available.
6:01 AM 8:15 PM
New Moon, 0% visible
METAR KBIF 241058Z AUTO 03010KT 9SM FEW170 SCT190 27/11 A3006 RMK AO2 SLP099 T02660112 $
Pressure 29.83 in
Visibility 9.0 miles
Clouds Few 17000 ft
Scattered Clouds 19000 ft
Dew Point Not available.
Humidity Not available.
Rainfall --
Snow Depth Not available.
6:01 AM 8:15 PM
New Moon, 0% visible
METAR KBIF 241058Z AUTO 03010KT 9SM FEW170 SCT190 27/11 A3006 RMK AO2 SLP099 T02660112 $

Get Your Daily Forecast Email!

Thanks for signing up!

Be on the lookout for a verification email in your inbox.

You'll start receiving severe weather alerts in your inbox..

×

10-Day Weather Forecast

Almanac

Astronomy

Jun. 24, 2017 Rise Set
Actual Time
Civil Twilight
Nautical Twilight
Astronomical Twilight
Moon
Length of Visible Light
Length of Day
Tomorrow will be .
, % of the Moon is Illuminated

Today's Extremes

State Highs State Lows

Community

WunderPhotos

Category 6

Welcome to Category 6. This is the collective home for Weather Underground's featured writeups by Dr. Jeff Masters (right), Bob Henson (left), Chris Burt, and other regular contributors.

Nearby

Air Quality

  Air Quality AQ Index Pollutant
Not available.

Snow Depth

Station Depth Elevation

Earthquake Activity

City Distance Mag. Time & Date
Minimum magnitude displayed is 2.5.

Coastal Water Temperatures

Place Temperature

Stations

Nearby Weather Stations

Station Location Temp. Windchill Dew Point Humidity Wind Precip. Elev Updated Type
                   

Watches & Warnings

Wind Advisory
Issued: 6:42 PM MDT Jun. 23, 2017 – National Weather Service

... Wind Advisory remains in effect until 6 am MDT Saturday...
... Heat advisory has expired...

* winds... winds will increase after 8 PM with east winds gusting
around 40 to 50 mph across the region. Strongest winds will be
along western facing mountain slopes.

* Impacts... winds may blow loose objects around. Roof damage to
small structures may also occur.

Precautionary/preparedness actions...

A Wind Advisory means that winds of 35 mph are expected. Winds
this strong can make driving difficult, especially for high
profile vehicles. Use extra caution.



Hefner